createdAt,value
2018-12-21T00:02:17.400Z,49.87
2018-12-21T00:05:21.718Z,46.57
2018-12-21T00:08:25.943Z,46.70
2018-12-21T00:11:30.230Z,43.30
2018-12-21T00:14:34.602Z,36.97
2018-12-21T00:17:38.947Z,43.87
2018-12-21T00:20:43.160Z,42.07
2018-12-21T00:23:47.501Z,37.83
2018-12-21T00:26:51.795Z,36.93
2018-12-21T00:29:56.048Z,33.63
2018-12-21T00:33:05.563Z,32.80
2018-12-21T00:36:15.239Z,31.87
2018-12-21T00:39:24.800Z,29.03
2018-12-21T00:42:34.115Z,26.00
2018-12-21T00:48:58.863Z,23.53
2018-12-21T00:52:03.162Z,24.17
2018-12-21T00:55:07.505Z,22.20
2018-12-21T00:58:11.803Z,21.93
2018-12-21T01:01:16.259Z,26.03
2018-12-21T01:04:20.635Z,25.20
2018-12-21T01:07:24.905Z,27.30
2018-12-21T01:10:29.109Z,31.43
2018-12-21T01:13:33.308Z,31.50
2018-12-21T01:16:37.623Z,31.57
2018-12-21T01:19:42.005Z,36.53
2018-12-21T01:22:46.271Z,38.67
2018-12-21T01:25:52.477Z,41.03
2018-12-21T01:28:56.722Z,42.03
2018-12-21T01:32:00.951Z,41.73
2018-12-21T01:35:05.701Z,44.37
2018-12-21T01:38:10.047Z,42.57
2018-12-21T01:41:14.255Z,52.87
2018-12-21T01:44:18.731Z,51.93
2018-12-21T01:47:23.020Z,60.67
2018-12-21T01:50:27.250Z,53.77
2018-12-21T01:53:31.467Z,70.13
2018-12-21T01:56:35.743Z,62.47
2018-12-21T01:59:40.159Z,69.23
2018-12-21T02:02:44.384Z,65.40
2018-12-21T02:05:48.638Z,69.87
2018-12-21T02:08:52.935Z,61.90
2018-12-21T02:11:57.158Z,61.67
2018-12-21T02:15:01.360Z,61.40
2018-12-21T02:18:05.849Z,67.67
2018-12-21T02:21:10.099Z,67.67
2018-12-21T02:24:14.324Z,71.30
2018-12-21T02:27:18.656Z,63.30
2018-12-21T02:30:23.009Z,65.17
2018-12-21T02:33:27.308Z,67.87
2018-12-21T02:36:31.552Z,65.93
2018-12-21T02:39:35.756Z,63.40
2018-12-21T02:42:40.032Z,72.83
2018-12-21T02:45:44.235Z,66.43
2018-12-21T02:48:48.549Z,69.63
2018-12-21T02:51:52.841Z,69.30
2018-12-21T02:54:57.061Z,72.43
2018-12-21T02:58:01.278Z,70.00
2018-12-21T03:01:05.668Z,60.93
2018-12-21T03:04:09.955Z,65.73
2018-12-21T03:07:14.186Z,61.20
2018-12-21T03:10:18.479Z,60.70
2018-12-21T03:13:22.766Z,66.10
2018-12-21T03:16:26.999Z,58.93
2018-12-21T03:19:31.188Z,63.27
2018-12-21T03:22:35.504Z,59.63
2018-12-21T03:25:39.715Z,60.83
2018-12-21T03:28:43.959Z,58.07
2018-12-21T03:31:48.281Z,59.80
2018-12-21T03:34:52.528Z,59.90
2018-12-21T03:37:56.735Z,54.37
2018-12-21T03:41:01.056Z,62.17
2018-12-21T03:44:05.473Z,55.47
2018-12-21T03:47:09.758Z,53.93
2018-12-21T03:50:14.081Z,51.00
2018-12-21T03:53:18.363Z,57.30
2018-12-21T03:56:22.570Z,53.47
2018-12-21T03:59:26.804Z,56.37
2018-12-21T04:02:31.052Z,48.70
2018-12-21T04:05:35.428Z,54.80
2018-12-21T04:08:39.786Z,49.63
2018-12-21T04:11:44.034Z,47.20
2018-12-21T04:14:48.309Z,50.00
2018-12-21T04:17:52.603Z,47.63
2018-12-21T04:20:56.859Z,53.27
2018-12-21T04:24:01.095Z,46.83
2018-12-21T04:27:05.354Z,47.77
2018-12-21T04:30:10.433Z,49.00
2018-12-21T04:33:14.651Z,48.87
2018-12-21T04:36:18.879Z,45.97
2018-12-21T04:39:23.329Z,44.13
2018-12-21T04:42:27.563Z,42.53
2018-12-21T04:45:31.919Z,43.20
2018-12-21T04:48:36.191Z,40.30
2018-12-21T04:51:40.503Z,38.03
2018-12-21T04:54:44.707Z,45.53
2018-12-21T04:57:49.095Z,38.80
2018-12-21T05:00:53.383Z,41.53
2018-12-21T05:03:57.734Z,38.83
2018-12-21T05:07:02.049Z,44.33
2018-12-21T05:10:07.171Z,37.63
2018-12-21T05:13:11.479Z,43.17
2018-12-21T05:16:15.768Z,41.03
2018-12-21T05:19:20.135Z,41.00
2018-12-21T05:22:24.415Z,42.60
2018-12-21T05:25:28.751Z,44.23
2018-12-21T05:28:33.016Z,44.10
2018-12-21T05:31:37.239Z,43.93
2018-12-21T05:34:41.462Z,43.80
2018-12-21T05:37:45.819Z,44.00
2018-12-21T05:40:50.132Z,44.60
2018-12-21T05:43:54.344Z,43.53
2018-12-21T05:46:58.619Z,43.13
2018-12-21T05:50:03.022Z,45.30
2018-12-21T05:53:07.315Z,46.77
2018-12-21T05:56:11.504Z,45.60
2018-12-21T05:59:15.708Z,45.07
2018-12-21T06:02:20.072Z,44.30
2018-12-21T06:05:24.315Z,43.90
2018-12-21T06:08:28.539Z,46.77
2018-12-21T06:11:32.766Z,50.07
2018-12-21T06:14:36.978Z,46.27
2018-12-21T06:17:41.185Z,44.43
2018-12-21T06:20:45.391Z,44.60
2018-12-21T06:23:49.639Z,53.20
2018-12-21T06:26:53.863Z,43.40
2018-12-21T06:29:58.105Z,47.60
2018-12-21T06:33:02.317Z,41.77
2018-12-21T06:36:06.536Z,51.93
2018-12-21T06:39:10.742Z,52.50
2018-12-21T06:42:14.964Z,45.47
2018-12-21T06:45:19.265Z,47.33
2018-12-21T06:48:23.519Z,45.67
2018-12-21T06:51:27.795Z,48.43
2018-12-21T06:54:32.022Z,48.33
2018-12-21T06:57:36.243Z,50.47
2018-12-21T07:00:40.594Z,49.17
2018-12-21T07:03:44.814Z,43.47
2018-12-21T07:06:49.025Z,45.07
2018-12-21T07:09:53.329Z,45.17
2018-12-21T07:12:57.618Z,45.67
2018-12-21T07:16:01.903Z,38.47
2018-12-21T07:19:06.156Z,42.03
2018-12-21T07:22:10.340Z,38.20
2018-12-21T07:25:14.664Z,39.67
2018-12-21T07:28:18.890Z,39.13
2018-12-21T07:31:23.269Z,39.90
2018-12-21T07:34:27.458Z,39.67
2018-12-21T07:37:31.830Z,38.10
2018-12-21T07:40:36.046Z,39.13
2018-12-21T07:43:40.249Z,36.93
2018-12-21T07:46:44.455Z,32.90
2018-12-21T07:49:48.676Z,35.93
2018-12-21T07:52:53.394Z,33.50
2018-12-21T07:55:57.818Z,36.33
2018-12-21T07:59:02.094Z,31.93
2018-12-21T08:02:06.580Z,35.63
2018-12-21T08:05:10.783Z,35.90
2018-12-21T08:08:15.006Z,32.87
2018-12-21T08:11:19.319Z,36.30
2018-12-21T08:14:23.549Z,37.47
2018-12-21T08:17:27.772Z,43.37
2018-12-21T08:20:32.003Z,38.63
2018-12-21T08:23:44.080Z,43.40
2018-12-21T08:26:42.547Z,37.87
2018-12-21T08:29:46.767Z,40.03
2018-12-21T08:32:50.993Z,39.17
2018-12-21T08:35:55.217Z,37.33
2018-12-21T08:38:59.434Z,40.57
2018-12-21T08:42:03.662Z,42.77
2018-12-21T08:45:10.286Z,41.80
2018-12-21T08:48:14.643Z,36.80
2018-12-21T08:51:18.933Z,37.30
2018-12-21T08:54:23.147Z,36.67
2018-12-21T08:57:27.352Z,36.70
2018-12-21T09:00:31.564Z,40.40
2018-12-21T09:03:35.999Z,41.47
2018-12-21T09:06:40.214Z,40.93
2018-12-21T09:09:44.429Z,49.47
2018-12-21T09:12:48.648Z,46.83
2018-12-21T09:15:52.983Z,50.13
2018-12-21T09:18:57.280Z,45.77
2018-12-21T09:22:01.459Z,36.67
2018-12-21T09:25:05.936Z,49.17
2018-12-21T09:28:10.183Z,44.30
2018-12-21T09:31:14.517Z,43.97
2018-12-21T09:34:18.851Z,40.63
2018-12-21T09:37:23.065Z,44.13
2018-12-21T09:40:27.335Z,48.60
2018-12-21T09:43:31.546Z,46.27
2018-12-21T09:46:35.767Z,47.60
2018-12-21T09:49:40.063Z,44.53
2018-12-21T09:52:44.575Z,48.30
2018-12-21T09:55:48.814Z,46.33
2018-12-21T09:58:53.095Z,45.23
2018-12-21T10:01:57.322Z,48.50
2018-12-21T10:05:01.503Z,45.37
2018-12-21T10:08:05.871Z,48.57
2018-12-21T10:11:10.092Z,45.70
2018-12-21T10:14:14.328Z,47.53
2018-12-21T10:17:18.560Z,48.63
2018-12-21T10:20:22.879Z,42.40
2018-12-21T10:23:27.063Z,44.53
2018-12-21T10:26:31.299Z,43.97
2018-12-21T10:29:35.527Z,44.27
2018-12-21T10:32:39.960Z,45.30
2018-12-21T10:35:44.176Z,37.73
2018-12-21T10:38:48.389Z,43.40
2018-12-21T10:41:52.675Z,34.43
2018-12-21T10:44:56.964Z,41.63
2018-12-21T10:48:01.240Z,39.07
2018-12-21T10:51:05.590Z,36.33
2018-12-21T10:54:09.894Z,37.57
2018-12-21T10:57:14.168Z,36.73
2018-12-21T11:00:18.565Z,33.73
2018-12-21T11:03:22.786Z,31.27
2018-12-21T11:06:27.087Z,26.47
2018-12-21T11:09:31.298Z,30.73
2018-12-21T11:12:35.563Z,25.90
2018-12-21T11:15:39.775Z,28.97
2018-12-21T11:18:43.967Z,28.83
2018-12-21T11:21:48.238Z,35.27
2018-12-21T11:24:52.520Z,30.27
2018-12-21T11:27:56.718Z,32.40
2018-12-21T11:31:01.022Z,33.00
2018-12-21T11:34:05.455Z,31.07
2018-12-21T11:37:09.747Z,35.23
2018-12-21T11:40:14.093Z,29.73
2018-12-21T11:43:18.363Z,34.53
2018-12-21T11:46:22.739Z,29.83
2018-12-21T11:49:26.981Z,31.37
2018-12-21T11:52:31.138Z,29.93
2018-12-21T11:55:35.443Z,27.03
2018-12-21T11:58:39.738Z,30.37
2018-12-21T12:01:43.946Z,27.37
2018-12-21T12:04:48.139Z,23.43
2018-12-21T12:07:52.432Z,18.43
2018-12-21T12:10:56.842Z,20.83
2018-12-21T12:14:01.048Z,22.30
2018-12-21T12:17:05.431Z,22.10
2018-12-21T12:20:09.883Z,20.63
2018-12-21T12:23:14.199Z,19.90
2018-12-21T12:26:18.391Z,19.27
2018-12-21T12:29:22.619Z,17.03
2018-12-21T12:32:26.872Z,15.30
2018-12-21T12:35:31.207Z,17.50
2018-12-21T12:38:35.474Z,15.87
2018-12-21T12:41:39.685Z,21.30
2018-12-21T12:44:43.881Z,19.00
2018-12-21T12:47:48.164Z,15.60
2018-12-21T12:50:52.464Z,17.43
2018-12-21T12:53:56.739Z,11.13
2018-12-21T12:57:00.964Z,12.00
2018-12-21T13:00:08.364Z,12.70
2018-12-21T13:03:12.608Z,12.80
2018-12-21T13:06:16.812Z,12.60
2018-12-21T13:09:21.023Z,10.80
2018-12-21T13:12:25.231Z,10.03
2018-12-21T13:15:29.495Z,10.37
2018-12-21T13:18:33.755Z,12.67
2018-12-21T13:21:38.355Z,11.50
2018-12-21T13:24:42.696Z,12.33
2018-12-21T13:27:46.999Z,18.10
2018-12-21T13:30:51.302Z,10.67
2018-12-21T13:33:55.545Z,14.30
2018-12-21T13:36:59.753Z,15.53
2018-12-21T13:40:04.847Z,10.90
2018-12-21T13:43:09.068Z,13.40
2018-12-21T13:46:13.343Z,10.50
2018-12-21T13:49:17.536Z,12.63
2018-12-21T13:52:21.742Z,15.80
2018-12-21T13:55:25.938Z,11.83
2018-12-21T13:58:30.135Z,10.57
2018-12-21T14:01:34.398Z,12.93
2018-12-21T14:04:38.595Z,13.70
2018-12-21T14:07:42.883Z,15.97
2018-12-21T14:10:47.178Z,10.60
2018-12-21T14:13:51.392Z,15.30
2018-12-21T14:16:55.643Z,11.57
2018-12-21T14:19:59.859Z,10.53
2018-12-21T14:23:04.123Z,14.83
2018-12-21T14:26:08.479Z,12.53
2018-12-21T14:29:12.745Z,13.17
2018-12-21T14:32:16.980Z,20.93
2018-12-21T14:35:21.284Z,17.73
2018-12-21T14:38:25.520Z,17.13
2018-12-21T14:41:29.808Z,13.23
2018-12-21T14:44:33.998Z,9.67
2018-12-21T14:47:38.732Z,10.70
2018-12-21T14:50:42.972Z,12.53
2018-12-21T14:53:47.228Z,11.20
2018-12-21T14:56:51.527Z,8.57
2018-12-21T14:59:55.856Z,9.10
2018-12-21T15:03:00.122Z,9.23
2018-12-21T15:06:04.407Z,9.37
2018-12-21T15:09:08.896Z,9.30
2018-12-21T15:12:13.116Z,10.10
2018-12-21T15:15:17.362Z,9.23
2018-12-21T15:18:21.571Z,9.83
2018-12-21T15:21:25.863Z,10.60
2018-12-21T15:24:30.100Z,13.93
2018-12-21T15:27:34.441Z,10.20
2018-12-21T15:30:38.696Z,9.67
2018-12-21T15:33:42.979Z,13.10
2018-12-21T15:36:47.256Z,10.63
2018-12-21T15:39:51.511Z,12.70
2018-12-21T15:42:55.875Z,10.27
2018-12-21T15:46:00.075Z,9.87
2018-12-21T15:49:04.394Z,12.20
2018-12-21T15:52:08.822Z,11.87
2018-12-21T15:55:13.063Z,12.27
2018-12-21T15:58:17.335Z,12.17
2018-12-21T16:01:21.675Z,11.77
2018-12-21T16:04:26.005Z,11.20
2018-12-21T16:07:30.218Z,10.53
2018-12-21T16:10:34.419Z,7.67
2018-12-21T16:13:38.782Z,8.03
2018-12-21T16:16:43.036Z,7.20
2018-12-21T16:19:47.238Z,7.37
2018-12-21T16:22:51.511Z,8.10
2018-12-21T16:26:03.312Z,8.73
2018-12-21T16:29:02.087Z,8.20
2018-12-21T16:32:06.503Z,8.07
2018-12-21T16:35:10.734Z,14.17
2018-12-21T16:38:16.041Z,13.10
2018-12-21T16:41:20.536Z,12.07
2018-12-21T16:44:24.810Z,18.13
2018-12-21T16:47:29.026Z,12.90
2018-12-21T16:50:33.319Z,15.23
2018-12-21T16:53:37.563Z,9.93
2018-12-21T16:56:41.850Z,9.00
2018-12-21T16:59:46.211Z,8.87
2018-12-21T17:02:50.476Z,9.87
2018-12-21T17:05:54.692Z,8.87
2018-12-21T17:08:58.867Z,10.00
2018-12-21T17:12:03.075Z,10.83
2018-12-21T17:15:08.901Z,9.03
2018-12-21T17:18:13.415Z,15.47
2018-12-21T17:21:18.099Z,13.50
2018-12-21T17:24:22.522Z,13.67
2018-12-21T17:27:26.731Z,9.63
2018-12-21T17:30:31.066Z,10.13
2018-12-21T17:33:35.295Z,7.17
2018-12-21T17:36:39.582Z,6.57
2018-12-21T17:39:44.040Z,5.87
2018-12-21T17:42:48.427Z,5.80
2018-12-21T17:45:52.749Z,6.40
2018-12-21T17:48:56.952Z,6.17
2018-12-21T17:52:01.635Z,6.50
2018-12-21T17:55:08.574Z,5.93
2018-12-21T17:58:12.780Z,5.13
2018-12-21T18:01:17.254Z,6.60
2018-12-21T18:04:29.204Z,5.03
2018-12-21T18:07:33.432Z,6.53
2018-12-21T18:10:37.726Z,6.63
2018-12-21T18:13:42.015Z,7.17
2018-12-21T18:16:46.402Z,5.70
2018-12-21T18:19:50.609Z,5.70
2018-12-21T18:22:54.820Z,4.93
2018-12-21T18:25:59.123Z,6.03
2018-12-21T18:29:03.357Z,8.50
2018-12-21T18:32:19.990Z,7.90
2018-12-21T18:35:25.247Z,7.00
2018-12-21T18:38:30.724Z,8.30
2018-12-21T18:41:34.955Z,6.17
2018-12-21T18:44:39.187Z,7.00
2018-12-21T18:47:43.591Z,12.20
2018-12-21T18:50:47.799Z,15.33
2018-12-21T18:53:52.015Z,7.33
2018-12-21T18:57:01.356Z,9.47
2018-12-21T19:00:10.064Z,6.73
2018-12-21T19:03:14.282Z,4.60
2018-12-21T19:06:18.472Z,6.00
2018-12-21T19:09:22.682Z,4.87
2018-12-21T19:12:26.904Z,4.87
2018-12-21T19:15:31.136Z,6.63
2018-12-21T19:18:35.334Z,4.83
2018-12-21T19:21:39.724Z,5.20
2018-12-21T19:24:43.911Z,8.40
2018-12-21T19:27:48.199Z,6.83
2018-12-21T19:30:52.496Z,9.20
2018-12-21T19:33:56.920Z,8.37
2018-12-21T19:37:01.198Z,10.57
2018-12-21T19:40:06.983Z,9.53
2018-12-21T19:43:11.270Z,11.90
2018-12-21T19:46:15.532Z,11.97
2018-12-21T19:49:19.824Z,9.10
2018-12-21T19:52:24.106Z,7.07
2018-12-21T19:55:45.555Z,5.30
2018-12-21T19:58:49.919Z,6.20
2018-12-21T20:01:54.291Z,5.33
2018-12-21T20:04:58.511Z,7.70
2018-12-21T20:08:02.772Z,10.23
2018-12-21T20:11:07.419Z,9.07
2018-12-21T20:14:11.699Z,10.40
2018-12-21T20:17:15.988Z,7.77
2018-12-21T20:20:20.207Z,9.83
2018-12-21T20:23:24.412Z,8.27
2018-12-21T20:26:28.637Z,10.77
2018-12-21T20:29:32.924Z,9.23
2018-12-21T20:32:37.187Z,7.90
2018-12-21T20:35:41.811Z,9.00
2018-12-21T20:38:46.094Z,8.17
2018-12-21T20:41:50.464Z,11.50
2018-12-21T20:44:54.688Z,9.20
2018-12-21T20:47:58.900Z,11.07
2018-12-21T20:51:03.259Z,11.03
2018-12-21T20:54:07.568Z,9.57
2018-12-21T20:57:21.699Z,10.73
2018-12-21T21:00:20.876Z,10.07
2018-12-21T21:03:25.127Z,10.93
2018-12-21T21:06:29.352Z,12.43
2018-12-21T21:09:33.576Z,14.80
2018-12-21T21:12:37.797Z,13.87
2018-12-21T21:15:42.120Z,20.77
2018-12-21T21:18:46.410Z,22.17
2018-12-21T21:21:50.651Z,16.43
2018-12-21T21:24:54.943Z,19.83
2018-12-21T21:27:59.207Z,17.60
2018-12-21T21:31:03.514Z,19.00
2018-12-21T21:34:07.941Z,21.77
2018-12-21T21:37:12.235Z,26.63
2018-12-21T21:40:19.038Z,24.23
2018-12-21T21:43:23.402Z,25.37
2018-12-21T21:46:27.714Z,27.60
2018-12-21T21:49:31.944Z,24.03
2018-12-21T21:52:36.262Z,25.97
2018-12-21T21:55:40.589Z,26.80
2018-12-21T21:58:44.914Z,21.30
2018-12-21T22:01:49.290Z,17.20
2018-12-21T22:04:53.596Z,20.53
2018-12-21T22:07:57.879Z,14.33
2018-12-21T22:11:02.303Z,12.90
2018-12-21T22:14:06.647Z,11.80
2018-12-21T22:17:10.855Z,9.97
2018-12-21T22:20:15.136Z,10.60
2018-12-21T22:23:19.337Z,10.87
2018-12-21T22:26:23.568Z,10.77
2018-12-21T22:29:27.869Z,13.07
2018-12-21T22:32:32.139Z,11.63
2018-12-21T22:35:36.334Z,9.80
2018-12-21T22:38:40.647Z,10.03
2018-12-21T22:41:44.911Z,8.17
2018-12-21T22:44:49.235Z,8.00
2018-12-21T22:47:53.434Z,7.47
2018-12-21T22:50:57.731Z,7.47
2018-12-21T22:54:01.947Z,6.80
2018-12-21T22:57:06.171Z,8.27
2018-12-21T23:00:19.050Z,6.57
2018-12-21T23:03:23.274Z,7.33
2018-12-21T23:06:27.508Z,7.03
2018-12-21T23:09:33.191Z,7.00
2018-12-21T23:12:37.675Z,7.93
2018-12-21T23:15:42.008Z,7.97
2018-12-21T23:18:46.236Z,8.40
2018-12-21T23:21:50.457Z,8.67
2018-12-21T23:24:54.836Z,8.87
2018-12-21T23:28:04.906Z,10.47
2018-12-21T23:31:05.499Z,8.10
2018-12-21T23:34:09.699Z,9.27
2018-12-21T23:37:14.082Z,10.10
2018-12-21T23:40:18.310Z,9.37
2018-12-21T23:43:22.522Z,8.53
2018-12-21T23:46:26.889Z,9.10
2018-12-21T23:49:31.166Z,8.20
2018-12-21T23:52:35.470Z,9.33
2018-12-21T23:55:39.695Z,8.90
2018-12-21T23:58:43.914Z,8.30
